sensor_id;sensor_type;location;lat;lon;timestamp;P1;durP1;ratioP1;P2;durP2;ratioP2
63567;SDS011;49715;42.386;20.434;2023-03-01T00:01:21;58.63;;;27.05;;
63567;SDS011;49715;42.386;20.434;2023-03-01T00:03:58;57.90;;;28.05;;
63567;SDS011;49715;42.386;20.434;2023-03-01T00:06:35;47.13;;;25.92;;
63567;SDS011;49715;42.386;20.434;2023-03-01T00:09:04;62.78;;;27.45;;
63567;SDS011;49715;42.386;20.434;2023-03-01T00:11:34;67.18;;;28.27;;
63567;SDS011;49715;42.386;20.434;2023-03-01T00:14:01;59.88;;;28.90;;
63567;SDS011;49715;42.386;20.434;2023-03-01T00:16:36;55.33;;;29.02;;
63567;SDS011;49715;42.386;20.434;2023-03-01T00:19:09;53.42;;;25.48;;
63567;SDS011;49715;42.386;20.434;2023-03-01T00:21:41;58.05;;;26.45;;
63567;SDS011;49715;42.386;20.434;2023-03-01T00:24:18;53.35;;;27.67;;
63567;SDS011;49715;42.386;20.434;2023-03-01T00:26:44;57.70;;;26.88;;
63567;SDS011;49715;42.386;20.434;2023-03-01T00:29:14;52.63;;;27.35;;
63567;SDS011;49715;42.386;20.434;2023-03-01T00:31:40;63.00;;;26.55;;
63567;SDS011;49715;42.386;20.434;2023-03-01T00:34:07;53.80;;;26.27;;
63567;SDS011;49715;42.386;20.434;2023-03-01T00:36:34;61.83;;;27.05;;
63567;SDS011;49715;42.386;20.434;2023-03-01T00:39:03;59.22;;;28.98;;
63567;SDS011;49715;42.386;20.434;2023-03-01T00:41:31;54.35;;;26.58;;
63567;SDS011;49715;42.386;20.434;2023-03-01T00:44:02;64.93;;;29.48;;
63567;SDS011;49715;42.386;20.434;2023-03-01T00:46:29;51.13;;;28.33;;
63567;SDS011;49715;42.386;20.434;2023-03-01T00:48:57;56.92;;;27.40;;
63567;SDS011;49715;42.386;20.434;2023-03-01T00:51:33;63.33;;;28.08;;
63567;SDS011;49715;42.386;20.434;2023-03-01T00:54:00;66.70;;;27.55;;
63567;SDS011;49715;42.386;20.434;2023-03-01T00:56:28;67.53;;;28.58;;
63567;SDS011;49715;42.386;20.434;2023-03-01T00:58:57;56.33;;;28.05;;
63567;SDS011;49715;42.386;20.434;2023-03-01T01:01:27;58.95;;;27.15;;
63567;SDS011;49715;42.386;20.434;2023-03-01T01:04:04;51.05;;;26.23;;
63567;SDS011;49715;42.386;20.434;2023-03-01T01:06:45;57.65;;;26.30;;
63567;SDS011;49715;42.386;20.434;2023-03-01T01:09:15;49.72;;;26.88;;
63567;SDS011;49715;42.386;20.434;2023-03-01T01:11:48;51.90;;;26.15;;
63567;SDS011;49715;42.386;20.434;2023-03-01T01:14:16;50.05;;;26.02;;
63567;SDS011;49715;42.386;20.434;2023-03-01T01:16:44;58.53;;;26.40;;
63567;SDS011;49715;42.386;20.434;2023-03-01T01:19:17;54.58;;;25.77;;
63567;SDS011;49715;42.386;20.434;2023-03-01T01:21:57;53.30;;;25.77;;
63567;SDS011;49715;42.386;20.434;2023-03-01T01:24:24;48.75;;;24.92;;
63567;SDS011;49715;42.386;20.434;2023-03-01T01:26:50;53.37;;;25.33;;
63567;SDS011;49715;42.386;20.434;2023-03-01T01:29:17;58.22;;;26.65;;
63567;SDS011;49715;42.386;20.434;2023-03-01T01:31:43;51.65;;;22.27;;
63567;SDS011;49715;42.386;20.434;2023-03-01T01:34:17;42.53;;;20.63;;
63567;SDS011;49715;42.386;20.434;2023-03-01T01:36:49;53.55;;;25.48;;
63567;SDS011;49715;42.386;20.434;2023-03-01T01:39:20;48.17;;;24.15;;
63567;SDS011;49715;42.386;20.434;2023-03-01T01:44:19;36.28;;;15.65;;
63567;SDS011;49715;42.386;20.434;2023-03-01T01:46:51;32.95;;;13.60;;
63567;SDS011;49715;42.386;20.434;2023-03-01T01:52:24;27.90;;;13.70;;
63567;SDS011;49715;42.386;20.434;2023-03-01T01:55:07;30.40;;;11.95;;
63567;SDS011;49715;42.386;20.434;2023-03-01T01:57:39;29.58;;;12.90;;
63567;SDS011;49715;42.386;20.434;2023-03-01T02:00:11;24.10;;;10.90;;
63567;SDS011;49715;42.386;20.434;2023-03-01T02:02:44;26.60;;;12.32;;
63567;SDS011;49715;42.386;20.434;2023-03-01T02:05:24;27.60;;;12.32;;
63567;SDS011;49715;42.386;20.434;2023-03-01T02:07:52;26.70;;;12.07;;
63567;SDS011;49715;42.386;20.434;2023-03-01T02:10:20;37.05;;;13.43;;
63567;SDS011;49715;42.386;20.434;2023-03-01T02:12:48;33.55;;;13.38;;
63567;SDS011;49715;42.386;20.434;2023-03-01T02:17:42;30.98;;;12.10;;
63567;SDS011;49715;42.386;20.434;2023-03-01T02:20:15;37.60;;;13.50;;
63567;SDS011;49715;42.386;20.434;2023-03-01T02:22:45;26.50;;;11.70;;
63567;SDS011;49715;42.386;20.434;2023-03-01T02:27:48;31.90;;;11.60;;
63567;SDS011;49715;42.386;20.434;2023-03-01T02:30:24;29.00;;;11.65;;
63567;SDS011;49715;42.386;20.434;2023-03-01T02:32:52;35.88;;;11.13;;
63567;SDS011;49715;42.386;20.434;2023-03-01T02:35:22;32.92;;;11.05;;
63567;SDS011;49715;42.386;20.434;2023-03-01T02:37:49;26.00;;;11.45;;
63567;SDS011;49715;42.386;20.434;2023-03-01T02:40:17;27.02;;;11.07;;
63567;SDS011;49715;42.386;20.434;2023-03-01T02:42:50;30.20;;;11.40;;
63567;SDS011;49715;42.386;20.434;2023-03-01T02:45:19;26.55;;;10.65;;
63567;SDS011;49715;42.386;20.434;2023-03-01T02:47:46;26.40;;;10.75;;
63567;SDS011;49715;42.386;20.434;2023-03-01T02:50:15;30.52;;;10.38;;
63567;SDS011;49715;42.386;20.434;2023-03-01T02:52:59;27.67;;;10.52;;
63567;SDS011;49715;42.386;20.434;2023-03-01T02:55:47;26.33;;;11.50;;
63567;SDS011;49715;42.386;20.434;2023-03-01T03:00:41;20.23;;;9.70;;
63567;SDS011;49715;42.386;20.434;2023-03-01T03:03:15;25.85;;;8.68;;
63567;SDS011;49715;42.386;20.434;2023-03-01T03:05:46;24.77;;;9.30;;
63567;SDS011;49715;42.386;20.434;2023-03-01T03:08:14;28.70;;;9.27;;
63567;SDS011;49715;42.386;20.434;2023-03-01T03:10:50;23.33;;;9.82;;
63567;SDS011;49715;42.386;20.434;2023-03-01T03:13:18;22.20;;;9.38;;
63567;SDS011;49715;42.386;20.434;2023-03-01T03:15:45;26.70;;;9.48;;
63567;SDS011;49715;42.386;20.434;2023-03-01T03:18:12;33.07;;;9.87;;
63567;SDS011;49715;42.386;20.434;2023-03-01T03:20:42;21.92;;;9.18;;
63567;SDS011;49715;42.386;20.434;2023-03-01T03:25:36;20.20;;;8.85;;
63567;SDS011;49715;42.386;20.434;2023-03-01T03:28:04;25.65;;;10.13;;
63567;SDS011;49715;42.386;20.434;2023-03-01T03:30:36;20.85;;;8.85;;
63567;SDS011;49715;42.386;20.434;2023-03-01T03:33:05;29.98;;;10.25;;
63567;SDS011;49715;42.386;20.434;2023-03-01T03:35:33;25.95;;;11.25;;
63567;SDS011;49715;42.386;20.434;2023-03-01T03:38:06;26.23;;;10.85;;
63567;SDS011;49715;42.386;20.434;2023-03-01T03:40:42;30.80;;;10.73;;
63567;SDS011;49715;42.386;20.434;2023-03-01T03:43:14;27.23;;;10.90;;
63567;SDS011;49715;42.386;20.434;2023-03-01T03:45:46;26.17;;;10.88;;
63567;SDS011;49715;42.386;20.434;2023-03-01T03:48:14;28.00;;;11.45;;
63567;SDS011;49715;42.386;20.434;2023-03-01T03:50:41;28.48;;;11.75;;
63567;SDS011;49715;42.386;20.434;2023-03-01T03:53:09;24.55;;;10.68;;
63567;SDS011;49715;42.386;20.434;2023-03-01T03:55:37;33.92;;;11.18;;
63567;SDS011;49715;42.386;20.434;2023-03-01T03:58:08;22.08;;;9.82;;
63567;SDS011;49715;42.386;20.434;2023-03-01T04:00:39;20.23;;;9.85;;
63567;SDS011;49715;42.386;20.434;2023-03-01T04:03:09;21.98;;;9.32;;
63567;SDS011;49715;42.386;20.434;2023-03-01T04:05:36;21.33;;;8.68;;
63567;SDS011;49715;42.386;20.434;2023-03-01T04:08:04;16.95;;;8.63;;
63567;SDS011;49715;42.386;20.434;2023-03-01T04:10:37;18.75;;;8.27;;
63567;SDS011;49715;42.386;20.434;2023-03-01T04:13:05;16.33;;;7.68;;
63567;SDS011;49715;42.386;20.434;2023-03-01T04:15:33;22.75;;;8.98;;
63567;SDS011;49715;42.386;20.434;2023-03-01T04:18:00;22.88;;;9.23;;
63567;SDS011;49715;42.386;20.434;2023-03-01T04:20:28;28.15;;;9.55;;
63567;SDS011;49715;42.386;20.434;2023-03-01T04:22:57;23.95;;;8.68;;
63567;SDS011;49715;42.386;20.434;2023-03-01T04:25:56;20.70;;;8.63;;
63567;SDS011;49715;42.386;20.434;2023-03-01T04:31:02;19.13;;;7.65;;
63567;SDS011;49715;42.386;20.434;2023-03-01T04:33:39;20.48;;;7.65;;
63567;SDS011;49715;42.386;20.434;2023-03-01T04:36:10;27.92;;;8.07;;
63567;SDS011;49715;42.386;20.434;2023-03-01T04:38:39;14.25;;;7.45;;
63567;SDS011;49715;42.386;20.434;2023-03-01T04:41:07;22.58;;;8.48;;
63567;SDS011;49715;42.386;20.434;2023-03-01T04:43:36;22.17;;;8.00;;
63567;SDS011;49715;42.386;20.434;2023-03-01T04:46:04;18.75;;;9.02;;
63567;SDS011;49715;42.386;20.434;2023-03-01T04:48:32;27.00;;;9.07;;
63567;SDS011;49715;42.386;20.434;2023-03-01T04:50:59;15.82;;;9.00;;
63567;SDS011;49715;42.386;20.434;2023-03-01T04:53:26;20.90;;;9.45;;
63567;SDS011;49715;42.386;20.434;2023-03-01T04:55:54;24.92;;;9.85;;
63567;SDS011;49715;42.386;20.434;2023-03-01T04:58:22;26.30;;;11.05;;
63567;SDS011;49715;42.386;20.434;2023-03-01T05:00:50;23.27;;;11.65;;
63567;SDS011;49715;42.386;20.434;2023-03-01T05:03:16;28.15;;;11.43;;
63567;SDS011;49715;42.386;20.434;2023-03-01T05:05:45;23.40;;;10.82;;
63567;SDS011;49715;42.386;20.434;2023-03-01T05:08:12;26.48;;;10.98;;
63567;SDS011;49715;42.386;20.434;2023-03-01T05:10:44;25.98;;;11.57;;
63567;SDS011;49715;42.386;20.434;2023-03-01T05:13:13;37.28;;;16.23;;
63567;SDS011;49715;42.386;20.434;2023-03-01T05:15:47;34.50;;;15.82;;
63567;SDS011;49715;42.386;20.434;2023-03-01T05:18:15;40.60;;;17.80;;
63567;SDS011;49715;42.386;20.434;2023-03-01T05:20:41;40.03;;;16.20;;
63567;SDS011;49715;42.386;20.434;2023-03-01T05:23:13;44.55;;;16.38;;
63567;SDS011;49715;42.386;20.434;2023-03-01T05:25:39;34.77;;;16.73;;
63567;SDS011;49715;42.386;20.434;2023-03-01T05:28:07;33.23;;;17.27;;
63567;SDS011;49715;42.386;20.434;2023-03-01T05:30:37;39.50;;;16.50;;
63567;SDS011;49715;42.386;20.434;2023-03-01T05:33:07;40.88;;;16.48;;
63567;SDS011;49715;42.386;20.434;2023-03-01T05:35:39;30.90;;;15.82;;
63567;SDS011;49715;42.386;20.434;2023-03-01T05:38:08;39.05;;;17.10;;
63567;SDS011;49715;42.386;20.434;2023-03-01T05:40:41;36.13;;;17.20;;
63567;SDS011;49715;42.386;20.434;2023-03-01T05:43:09;42.35;;;18.73;;
63567;SDS011;49715;42.386;20.434;2023-03-01T05:45:37;43.28;;;18.95;;
63567;SDS011;49715;42.386;20.434;2023-03-01T05:48:04;40.30;;;17.23;;
63567;SDS011;49715;42.386;20.434;2023-03-01T05:53:00;36.97;;;15.57;;
63567;SDS011;49715;42.386;20.434;2023-03-01T05:55:34;40.85;;;15.40;;
63567;SDS011;49715;42.386;20.434;2023-03-01T05:58:02;32.80;;;15.63;;
63567;SDS011;49715;42.386;20.434;2023-03-01T06:00:30;38.88;;;16.58;;
63567;SDS011;49715;42.386;20.434;2023-03-01T06:02:58;31.50;;;15.82;;
63567;SDS011;49715;42.386;20.434;2023-03-01T06:05:26;36.72;;;16.27;;
63567;SDS011;49715;42.386;20.434;2023-03-01T06:07:54;37.65;;;16.25;;
63567;SDS011;49715;42.386;20.434;2023-03-01T06:10:22;37.08;;;16.58;;
63567;SDS011;49715;42.386;20.434;2023-03-01T06:15:16;42.13;;;20.40;;
63567;SDS011;49715;42.386;20.434;2023-03-01T06:17:43;38.20;;;18.02;;
63567;SDS011;49715;42.386;20.434;2023-03-01T06:20:13;22.85;;;12.48;;
63567;SDS011;49715;42.386;20.434;2023-03-01T06:22:45;21.60;;;9.70;;
63567;SDS011;49715;42.386;20.434;2023-03-01T06:25:14;21.95;;;11.10;;
63567;SDS011;49715;42.386;20.434;2023-03-01T06:27:43;23.85;;;11.80;;
63567;SDS011;49715;42.386;20.434;2023-03-01T06:30:12;43.25;;;21.60;;
63567;SDS011;49715;42.386;20.434;2023-03-01T06:32:40;45.65;;;26.60;;
63567;SDS011;49715;42.386;20.434;2023-03-01T06:35:11;65.35;;;33.03;;
63567;SDS011;49715;42.386;20.434;2023-03-01T06:37:39;27.92;;;12.00;;
63567;SDS011;49715;42.386;20.434;2023-03-01T06:40:08;21.23;;;10.18;;
63567;SDS011;49715;42.386;20.434;2023-03-01T06:42:38;21.35;;;11.15;;
63567;SDS011;49715;42.386;20.434;2023-03-01T06:45:06;30.75;;;14.43;;
63567;SDS011;49715;42.386;20.434;2023-03-01T06:47:35;21.48;;;11.70;;
63567;SDS011;49715;42.386;20.434;2023-03-01T06:50:08;29.30;;;12.35;;
63567;SDS011;49715;42.386;20.434;2023-03-01T06:52:35;25.50;;;12.93;;
63567;SDS011;49715;42.386;20.434;2023-03-01T06:55:31;25.50;;;14.48;;
63567;SDS011;49715;42.386;20.434;2023-03-01T06:58:24;23.92;;;12.10;;
63567;SDS011;49715;42.386;20.434;2023-03-01T07:00:54;25.50;;;12.82;;
63567;SDS011;49715;42.386;20.434;2023-03-01T07:03:20;23.80;;;11.90;;
63567;SDS011;49715;42.386;20.434;2023-03-01T07:05:50;21.95;;;11.20;;
63567;SDS011;49715;42.386;20.434;2023-03-01T07:08:19;17.73;;;11.23;;
63567;SDS011;49715;42.386;20.434;2023-03-01T07:10:56;17.88;;;11.20;;
63567;SDS011;49715;42.386;20.434;2023-03-01T07:13:49;25.30;;;11.88;;
63567;SDS011;49715;42.386;20.434;2023-03-01T07:16:29;28.27;;;10.52;;
63567;SDS011;49715;42.386;20.434;2023-03-01T07:19:02;18.75;;;9.73;;
63567;SDS011;49715;42.386;20.434;2023-03-01T07:21:28;18.80;;;9.55;;
63567;SDS011;49715;42.386;20.434;2023-03-01T07:26:53;39.47;;;17.55;;
63567;SDS011;49715;42.386;20.434;2023-03-01T07:29:23;26.63;;;11.15;;
63567;SDS011;49715;42.386;20.434;2023-03-01T07:35:06;29.85;;;11.20;;
63567;SDS011;49715;42.386;20.434;2023-03-01T07:43:22;28.83;;;11.27;;
63567;SDS011;49715;42.386;20.434;2023-03-01T07:49:38;19.40;;;9.52;;
63567;SDS011;49715;42.386;20.434;2023-03-01T07:52:15;21.45;;;11.15;;
63567;SDS011;49715;42.386;20.434;2023-03-01T07:54:48;26.73;;;10.50;;
63567;SDS011;49715;42.386;20.434;2023-03-01T07:57:16;24.23;;;10.05;;
63567;SDS011;49715;42.386;20.434;2023-03-01T07:59:42;19.27;;;10.47;;
63567;SDS011;49715;42.386;20.434;2023-03-01T08:02:10;29.52;;;12.13;;
63567;SDS011;49715;42.386;20.434;2023-03-01T08:04:41;21.42;;;10.77;;
63567;SDS011;49715;42.386;20.434;2023-03-01T08:07:08;17.63;;;8.70;;
63567;SDS011;49715;42.386;20.434;2023-03-01T08:09:38;24.38;;;8.95;;
63567;SDS011;49715;42.386;20.434;2023-03-01T08:14:33;17.35;;;10.77;;
63567;SDS011;49715;42.386;20.434;2023-03-01T08:17:00;21.02;;;10.70;;
63567;SDS011;49715;42.386;20.434;2023-03-01T08:19:29;18.73;;;10.25;;
63567;SDS011;49715;42.386;20.434;2023-03-01T08:21:56;21.10;;;11.02;;
63567;SDS011;49715;42.386;20.434;2023-03-01T08:24:26;21.25;;;9.85;;
63567;SDS011;49715;42.386;20.434;2023-03-01T08:26:55;24.55;;;10.35;;
63567;SDS011;49715;42.386;20.434;2023-03-01T08:30:04;20.83;;;10.75;;
63567;SDS011;49715;42.386;20.434;2023-03-01T08:32:39;23.60;;;10.98;;
63567;SDS011;49715;42.386;20.434;2023-03-01T08:35:06;28.30;;;10.82;;
63567;SDS011;49715;42.386;20.434;2023-03-01T08:39:59;22.10;;;11.30;;
63567;SDS011;49715;42.386;20.434;2023-03-01T08:42:27;24.33;;;11.32;;
63567;SDS011;49715;42.386;20.434;2023-03-01T08:44:53;26.73;;;13.60;;
63567;SDS011;49715;42.386;20.434;2023-03-01T08:47:23;19.63;;;9.90;;
63567;SDS011;49715;42.386;20.434;2023-03-01T08:50:27;18.95;;;10.15;;
63567;SDS011;49715;42.386;20.434;2023-03-01T08:52:57;21.63;;;10.70;;
63567;SDS011;49715;42.386;20.434;2023-03-01T08:55:23;27.83;;;11.02;;
63567;SDS011;49715;42.386;20.434;2023-03-01T08:57:50;18.65;;;10.00;;
63567;SDS011;49715;42.386;20.434;2023-03-01T09:00:18;30.75;;;11.95;;
63567;SDS011;49715;42.386;20.434;2023-03-01T09:03:04;42.53;;;19.77;;
63567;SDS011;49715;42.386;20.434;2023-03-01T09:05:33;23.95;;;11.52;;
63567;SDS011;49715;42.386;20.434;2023-03-01T09:08:09;26.63;;;11.15;;
63567;SDS011;49715;42.386;20.434;2023-03-01T09:10:44;31.67;;;12.68;;
63567;SDS011;49715;42.386;20.434;2023-03-01T09:13:24;33.58;;;13.25;;
63567;SDS011;49715;42.386;20.434;2023-03-01T09:15:51;23.65;;;11.50;;
63567;SDS011;49715;42.386;20.434;2023-03-01T09:18:26;28.13;;;10.77;;
63567;SDS011;49715;42.386;20.434;2023-03-01T09:24:28;20.90;;;9.27;;
63567;SDS011;49715;42.386;20.434;2023-03-01T09:26:55;30.67;;;10.73;;
63567;SDS011;49715;42.386;20.434;2023-03-01T09:29:30;21.45;;;10.05;;
63567;SDS011;49715;42.386;20.434;2023-03-01T09:31:57;19.40;;;10.13;;
63567;SDS011;49715;42.386;20.434;2023-03-01T09:34:24;18.13;;;9.18;;
63567;SDS011;49715;42.386;20.434;2023-03-01T09:36:51;22.83;;;9.95;;
63567;SDS011;49715;42.386;20.434;2023-03-01T09:39:18;18.25;;;10.10;;
63567;SDS011;49715;42.386;20.434;2023-03-01T09:42:00;23.63;;;9.65;;
63567;SDS011;49715;42.386;20.434;2023-03-01T09:44:32;22.58;;;11.05;;
63567;SDS011;49715;42.386;20.434;2023-03-01T09:47:14;22.38;;;10.90;;
63567;SDS011;49715;42.386;20.434;2023-03-01T09:49:55;19.98;;;10.77;;
63567;SDS011;49715;42.386;20.434;2023-03-01T09:53:05;19.13;;;10.63;;
63567;SDS011;49715;42.386;20.434;2023-03-01T09:58:36;22.42;;;11.43;;
63567;SDS011;49715;42.386;20.434;2023-03-01T10:01:29;19.13;;;9.60;;
63567;SDS011;49715;42.386;20.434;2023-03-01T10:09:47;21.42;;;10.02;;
63567;SDS011;49715;42.386;20.434;2023-03-01T10:12:23;25.10;;;10.75;;
63567;SDS011;49715;42.386;20.434;2023-03-01T10:14:56;22.15;;;10.15;;
63567;SDS011;49715;42.386;20.434;2023-03-01T10:20:21;19.17;;;9.02;;
63567;SDS011;49715;42.386;20.434;2023-03-01T10:22:53;16.13;;;8.73;;
63567;SDS011;49715;42.386;20.434;2023-03-01T10:25:36;18.75;;;9.00;;
63567;SDS011;49715;42.386;20.434;2023-03-01T10:31:44;19.50;;;9.63;;
63567;SDS011;49715;42.386;20.434;2023-03-01T10:34:20;22.13;;;9.23;;
63567;SDS011;49715;42.386;20.434;2023-03-01T10:36:49;17.02;;;9.57;;
63567;SDS011;49715;42.386;20.434;2023-03-01T10:39:20;13.85;;;8.60;;
63567;SDS011;49715;42.386;20.434;2023-03-01T10:41:53;21.15;;;8.68;;
63567;SDS011;49715;42.386;20.434;2023-03-01T10:44:34;19.23;;;9.10;;
63567;SDS011;49715;42.386;20.434;2023-03-01T10:47:02;16.92;;;8.52;;
63567;SDS011;49715;42.386;20.434;2023-03-01T10:49:30;17.23;;;9.43;;
63567;SDS011;49715;42.386;20.434;2023-03-01T10:51:57;17.60;;;10.18;;
63567;SDS011;49715;42.386;20.434;2023-03-01T10:57:54;19.90;;;9.20;;
63567;SDS011;49715;42.386;20.434;2023-03-01T11:00:47;17.80;;;9.40;;
63567;SDS011;49715;42.386;20.434;2023-03-01T11:03:42;21.95;;;9.05;;
63567;SDS011;49715;42.386;20.434;2023-03-01T11:08:42;20.08;;;9.85;;
63567;SDS011;49715;42.386;20.434;2023-03-01T11:14:03;15.63;;;9.85;;
63567;SDS011;49715;42.386;20.434;2023-03-01T11:16:35;17.80;;;9.18;;
63567;SDS011;49715;42.386;20.434;2023-03-01T11:21:41;19.15;;;9.50;;
63567;SDS011;49715;42.386;20.434;2023-03-01T11:24:12;18.58;;;9.82;;
63567;SDS011;49715;42.386;20.434;2023-03-01T11:26:44;20.15;;;9.48;;
63567;SDS011;49715;42.386;20.434;2023-03-01T11:29:21;20.10;;;10.00;;
63567;SDS011;49715;42.386;20.434;2023-03-01T11:32:13;21.67;;;9.45;;
63567;SDS011;49715;42.386;20.434;2023-03-01T11:34:43;18.02;;;9.23;;
63567;SDS011;49715;42.386;20.434;2023-03-01T11:54:02;29.13;;;12.20;;
63567;SDS011;49715;42.386;20.434;2023-03-01T11:56:47;18.40;;;11.73;;
63567;SDS011;49715;42.386;20.434;2023-03-01T11:59:28;22.92;;;12.07;;
63567;SDS011;49715;42.386;20.434;2023-03-01T12:05:29;21.80;;;11.35;;
63567;SDS011;49715;42.386;20.434;2023-03-01T12:11:03;21.80;;;10.95;;
63567;SDS011;49715;42.386;20.434;2023-03-01T12:19:11;22.80;;;11.73;;
63567;SDS011;49715;42.386;20.434;2023-03-01T12:25:11;21.42;;;11.52;;
63567;SDS011;49715;42.386;20.434;2023-03-01T12:33:52;24.58;;;13.20;;
63567;SDS011;49715;42.386;20.434;2023-03-01T12:47:53;22.05;;;13.18;;
63567;SDS011;49715;42.386;20.434;2023-03-01T12:50:42;25.30;;;13.43;;
63567;SDS011;49715;42.386;20.434;2023-03-01T12:53:25;24.17;;;12.98;;
63567;SDS011;49715;42.386;20.434;2023-03-01T12:56:14;22.42;;;13.20;;
63567;SDS011;49715;42.386;20.434;2023-03-01T13:08:27;24.33;;;13.73;;
63567;SDS011;49715;42.386;20.434;2023-03-01T13:11:17;42.67;;;15.38;;
63567;SDS011;49715;42.386;20.434;2023-03-01T13:16:48;22.42;;;13.80;;
63567;SDS011;49715;42.386;20.434;2023-03-01T13:19:36;30.13;;;13.75;;
63567;SDS011;49715;42.386;20.434;2023-03-01T13:22:25;27.30;;;13.13;;
63567;SDS011;49715;42.386;20.434;2023-03-01T13:25:01;26.42;;;13.35;;
63567;SDS011;49715;42.386;20.434;2023-03-01T13:31:06;24.58;;;12.55;;
63567;SDS011;49715;42.386;20.434;2023-03-01T13:39:30;25.55;;;12.77;;
63567;SDS011;49715;42.386;20.434;2023-03-01T13:47:53;26.38;;;12.02;;
63567;SDS011;49715;42.386;20.434;2023-03-01T13:50:25;21.58;;;11.88;;
63567;SDS011;49715;42.386;20.434;2023-03-01T13:55:25;23.90;;;13.35;;
63567;SDS011;49715;42.386;20.434;2023-03-01T13:58:20;33.88;;;13.30;;
63567;SDS011;49715;42.386;20.434;2023-03-01T14:01:06;24.33;;;13.47;;
63567;SDS011;49715;42.386;20.434;2023-03-01T14:03:46;31.77;;;13.80;;
63567;SDS011;49715;42.386;20.434;2023-03-01T14:06:14;28.27;;;13.82;;
63567;SDS011;49715;42.386;20.434;2023-03-01T14:08:47;30.58;;;14.35;;
63567;SDS011;49715;42.386;20.434;2023-03-01T14:14:18;27.45;;;14.40;;
63567;SDS011;49715;42.386;20.434;2023-03-01T14:20:07;28.45;;;13.82;;
63567;SDS011;49715;42.386;20.434;2023-03-01T14:22:49;35.78;;;15.18;;
63567;SDS011;49715;42.386;20.434;2023-03-01T14:26:38;33.58;;;14.15;;
63567;SDS011;49715;42.386;20.434;2023-03-01T14:32:25;23.48;;;13.60;;
63567;SDS011;49715;42.386;20.434;2023-03-01T14:34:53;32.75;;;13.10;;
63567;SDS011;49715;42.386;20.434;2023-03-01T14:37:27;29.65;;;13.85;;
63567;SDS011;49715;42.386;20.434;2023-03-01T14:39:59;28.65;;;14.25;;
63567;SDS011;49715;42.386;20.434;2023-03-01T14:42:34;26.40;;;13.27;;
63567;SDS011;49715;42.386;20.434;2023-03-01T14:45:09;27.27;;;13.43;;
63567;SDS011;49715;42.386;20.434;2023-03-01T14:47:38;22.17;;;12.77;;
63567;SDS011;49715;42.386;20.434;2023-03-01T14:52:56;25.83;;;12.73;;
63567;SDS011;49715;42.386;20.434;2023-03-01T14:58:41;33.88;;;12.85;;
63567;SDS011;49715;42.386;20.434;2023-03-01T15:03:52;35.13;;;14.45;;
63567;SDS011;49715;42.386;20.434;2023-03-01T15:06:24;32.15;;;15.32;;
63567;SDS011;49715;42.386;20.434;2023-03-01T15:08:56;30.23;;;14.70;;
63567;SDS011;49715;42.386;20.434;2023-03-01T15:11:31;31.15;;;15.18;;
63567;SDS011;49715;42.386;20.434;2023-03-01T15:14:01;28.95;;;14.68;;
63567;SDS011;49715;42.386;20.434;2023-03-01T15:16:49;33.88;;;16.63;;
63567;SDS011;49715;42.386;20.434;2023-03-01T15:19:16;32.15;;;15.23;;
63567;SDS011;49715;42.386;20.434;2023-03-01T15:21:46;36.13;;;16.80;;
63567;SDS011;49715;42.386;20.434;2023-03-01T15:24:20;31.73;;;16.58;;
63567;SDS011;49715;42.386;20.434;2023-03-01T15:26:52;36.33;;;16.17;;
63567;SDS011;49715;42.386;20.434;2023-03-01T15:29:24;28.55;;;15.45;;
63567;SDS011;49715;42.386;20.434;2023-03-01T15:32:04;31.45;;;15.27;;
63567;SDS011;49715;42.386;20.434;2023-03-01T15:34:36;35.65;;;15.98;;
63567;SDS011;49715;42.386;20.434;2023-03-01T15:37:06;32.30;;;16.52;;
63567;SDS011;49715;42.386;20.434;2023-03-01T15:40:24;33.88;;;18.98;;
63567;SDS011;49715;42.386;20.434;2023-03-01T15:42:57;48.67;;;19.35;;
63567;SDS011;49715;42.386;20.434;2023-03-01T15:45:28;35.90;;;16.15;;
63567;SDS011;49715;42.386;20.434;2023-03-01T15:48:00;33.25;;;14.23;;
63567;SDS011;49715;42.386;20.434;2023-03-01T15:50:34;28.27;;;14.20;;
63567;SDS011;49715;42.386;20.434;2023-03-01T15:53:09;34.35;;;15.23;;
63567;SDS011;49715;42.386;20.434;2023-03-01T15:55:37;34.65;;;16.67;;
63567;SDS011;49715;42.386;20.434;2023-03-01T15:58:08;26.67;;;15.85;;
63567;SDS011;49715;42.386;20.434;2023-03-01T16:00:45;36.38;;;16.42;;
63567;SDS011;49715;42.386;20.434;2023-03-01T16:03:15;35.42;;;16.20;;
63567;SDS011;49715;42.386;20.434;2023-03-01T16:05:47;27.77;;;15.60;;
63567;SDS011;49715;42.386;20.434;2023-03-01T16:08:17;31.38;;;15.93;;
63567;SDS011;49715;42.386;20.434;2023-03-01T16:10:45;31.30;;;16.40;;
63567;SDS011;49715;42.386;20.434;2023-03-01T16:13:13;27.33;;;15.93;;
63567;SDS011;49715;42.386;20.434;2023-03-01T16:15:40;27.50;;;15.65;;
63567;SDS011;49715;42.386;20.434;2023-03-01T16:18:07;33.10;;;16.40;;
63567;SDS011;49715;42.386;20.434;2023-03-01T16:20:36;34.03;;;16.52;;
63567;SDS011;49715;42.386;20.434;2023-03-01T16:23:03;35.05;;;16.85;;
63567;SDS011;49715;42.386;20.434;2023-03-01T16:25:32;32.53;;;16.42;;
63567;SDS011;49715;42.386;20.434;2023-03-01T16:28:00;32.40;;;16.98;;
63567;SDS011;49715;42.386;20.434;2023-03-01T16:30:30;30.58;;;16.48;;
63567;SDS011;49715;42.386;20.434;2023-03-01T16:32:58;31.70;;;17.10;;
63567;SDS011;49715;42.386;20.434;2023-03-01T16:35:25;34.95;;;16.48;;
63567;SDS011;49715;42.386;20.434;2023-03-01T16:37:51;29.60;;;17.23;;
63567;SDS011;49715;42.386;20.434;2023-03-01T16:40:26;29.50;;;16.00;;
63567;SDS011;49715;42.386;20.434;2023-03-01T16:42:54;32.67;;;15.27;;
63567;SDS011;49715;42.386;20.434;2023-03-01T16:45:27;38.38;;;16.38;;
63567;SDS011;49715;42.386;20.434;2023-03-01T16:47:58;28.88;;;15.73;;
63567;SDS011;49715;42.386;20.434;2023-03-01T16:50:25;30.25;;;16.27;;
63567;SDS011;49715;42.386;20.434;2023-03-01T16:52:52;29.35;;;17.50;;
63567;SDS011;49715;42.386;20.434;2023-03-01T16:55:18;33.38;;;16.23;;
63567;SDS011;49715;42.386;20.434;2023-03-01T16:57:46;28.38;;;17.30;;
63567;SDS011;49715;42.386;20.434;2023-03-01T17:00:13;28.90;;;17.00;;
63567;SDS011;49715;42.386;20.434;2023-03-01T17:02:40;32.92;;;17.05;;
63567;SDS011;49715;42.386;20.434;2023-03-01T17:05:09;31.60;;;17.80;;
63567;SDS011;49715;42.386;20.434;2023-03-01T17:07:38;30.55;;;17.88;;
63567;SDS011;49715;42.386;20.434;2023-03-01T17:10:05;26.55;;;16.83;;
63567;SDS011;49715;42.386;20.434;2023-03-01T17:12:34;28.45;;;16.45;;
63567;SDS011;49715;42.386;20.434;2023-03-01T17:15:03;33.40;;;16.60;;
63567;SDS011;49715;42.386;20.434;2023-03-01T17:17:31;28.55;;;17.10;;
63567;SDS011;49715;42.386;20.434;2023-03-01T17:20:00;42.95;;;24.45;;
63567;SDS011;49715;42.386;20.434;2023-03-01T17:22:27;51.25;;;32.15;;
63567;SDS011;49715;42.386;20.434;2023-03-01T17:24:53;53.70;;;32.63;;
63567;SDS011;49715;42.386;20.434;2023-03-01T17:27:20;58.33;;;36.33;;
63567;SDS011;49715;42.386;20.434;2023-03-01T17:29:46;63.95;;;35.05;;
63567;SDS011;49715;42.386;20.434;2023-03-01T17:32:13;49.88;;;30.58;;